sensor_id;sensor_type;location;lat;lon;timestamp;pressure;altitude;pressure_sealevel;temperature;humidity
4858;BME280;58975;51.978;8.472;2023-03-25T00:00:57;98975.28;;;7.79;100.00
4858;BME280;58975;51.978;8.472;2023-03-25T00:05:55;98969.53;;;7.93;100.00
4858;BME280;58975;51.978;8.472;2023-03-25T00:10:53;98971.06;;;8.05;100.00
4858;BME280;58975;51.978;8.472;2023-03-25T00:15:50;98966.56;;;8.16;100.00
4858;BME280;58975;51.978;8.472;2023-03-25T00:20:49;98968.81;;;8.30;100.00
4858;BME280;58975;51.978;8.472;2023-03-25T00:25:47;98964.59;;;8.37;100.00
4858;BME280;58975;51.978;8.472;2023-03-25T00:30:44;98965.13;;;8.50;100.00
4858;BME280;58975;51.978;8.472;2023-03-25T00:35:41;98964.09;;;8.51;100.00
4858;BME280;58975;51.978;8.472;2023-03-25T00:40:40;98973.75;;;8.52;100.00
4858;BME280;58975;51.978;8.472;2023-03-25T00:45:39;98969.72;;;8.48;100.00
4858;BME280;58975;51.978;8.472;2023-03-25T00:50:35;98963.75;;;8.36;100.00
4858;BME280;58975;51.978;8.472;2023-03-25T00:55:32;98968.63;;;8.31;100.00
4858;BME280;58975;51.978;8.472;2023-03-25T01:00:28;98962.06;;;8.26;100.00
4858;BME280;58975;51.978;8.472;2023-03-25T01:05:25;98956.78;;;8.26;100.00
4858;BME280;58975;51.978;8.472;2023-03-25T01:10:21;98969.88;;;8.27;100.00
4858;BME280;58975;51.978;8.472;2023-03-25T01:15:18;98963.50;;;8.30;100.00
4858;BME280;58975;51.978;8.472;2023-03-25T01:20:14;98965.41;;;8.28;100.00
4858;BME280;58975;51.978;8.472;2023-03-25T01:25:11;98967.69;;;8.23;100.00
4858;BME280;58975;51.978;8.472;2023-03-25T01:30:08;98963.78;;;8.17;100.00
4858;BME280;58975;51.978;8.472;2023-03-25T01:35:06;98967.25;;;8.18;100.00
4858;BME280;58975;51.978;8.472;2023-03-25T01:40:04;98961.13;;;8.17;100.00
4858;BME280;58975;51.978;8.472;2023-03-25T01:45:28;98963.09;;;8.15;100.00
4858;BME280;58975;51.978;8.472;2023-03-25T01:50:24;98953.75;;;8.11;100.00
4858;BME280;58975;51.978;8.472;2023-03-25T01:55:24;98954.16;;;8.06;100.00
4858;BME280;58975;51.978;8.472;2023-03-25T02:00:22;98963.66;;;8.09;100.00
4858;BME280;58975;51.978;8.472;2023-03-25T02:05:22;98952.34;;;8.07;100.00
4858;BME280;58975;51.978;8.472;2023-03-25T02:10:21;98947.59;;;8.11;100.00
4858;BME280;58975;51.978;8.472;2023-03-25T02:15:18;98945.63;;;8.13;100.00
4858;BME280;58975;51.978;8.472;2023-03-25T02:20:42;98932.38;;;8.13;100.00
4858;BME280;58975;51.978;8.472;2023-03-25T02:26:24;98938.66;;;8.12;100.00
4858;BME280;58975;51.978;8.472;2023-03-25T02:31:45;98930.16;;;8.08;100.00
4858;BME280;58975;51.978;8.472;2023-03-25T02:42:23;98933.50;;;8.00;100.00
4858;BME280;58975;51.978;8.472;2023-03-25T02:47:23;98931.31;;;7.77;100.00
4858;BME280;58975;51.978;8.472;2023-03-25T02:52:28;98930.78;;;7.73;100.00
4858;BME280;58975;51.978;8.472;2023-03-25T02:57:27;98924.50;;;7.74;100.00
4858;BME280;58975;51.978;8.472;2023-03-25T03:02:25;98919.31;;;7.82;100.00
4858;BME280;58975;51.978;8.472;2023-03-25T03:07:42;98920.00;;;7.84;100.00
4858;BME280;58975;51.978;8.472;2023-03-25T03:18:08;98921.72;;;7.66;100.00
4858;BME280;58975;51.978;8.472;2023-03-25T03:23:19;98931.75;;;7.53;100.00
4858;BME280;58975;51.978;8.472;2023-03-25T03:28:32;98924.81;;;7.33;100.00
4858;BME280;58975;51.978;8.472;2023-03-25T03:33:41;98917.81;;;7.22;100.00
4858;BME280;58975;51.978;8.472;2023-03-25T03:38:47;98926.31;;;7.26;100.00
4858;BME280;58975;51.978;8.472;2023-03-25T03:43:51;98916.13;;;7.11;100.00
4858;BME280;58975;51.978;8.472;2023-03-25T03:48:57;98935.06;;;6.97;100.00
4858;BME280;58975;51.978;8.472;2023-03-25T03:54:04;98932.81;;;6.93;100.00
4858;BME280;58975;51.978;8.472;2023-03-25T03:59:10;98943.97;;;6.96;100.00
4858;BME280;58975;51.978;8.472;2023-03-25T04:04:09;98945.66;;;7.07;100.00
4858;BME280;58975;51.978;8.472;2023-03-25T04:09:15;98935.63;;;7.10;100.00
4858;BME280;58975;51.978;8.472;2023-03-25T04:14:15;98935.63;;;7.10;100.00
4858;BME280;58975;51.978;8.472;2023-03-25T04:19:12;98939.69;;;7.14;100.00
4858;BME280;58975;51.978;8.472;2023-03-25T04:24:14;98939.41;;;7.18;100.00
4858;BME280;58975;51.978;8.472;2023-03-25T04:29:12;98945.41;;;7.20;100.00
4858;BME280;58975;51.978;8.472;2023-03-25T04:34:12;98935.81;;;7.28;100.00
4858;BME280;58975;51.978;8.472;2023-03-25T04:39:10;98935.41;;;7.33;100.00
4858;BME280;58975;51.978;8.472;2023-03-25T04:44:07;98942.22;;;7.35;100.00
4858;BME280;58975;51.978;8.472;2023-03-25T04:49:04;98936.50;;;7.40;100.00
4858;BME280;58975;51.978;8.472;2023-03-25T04:54:10;98937.91;;;7.44;100.00
4858;BME280;58975;51.978;8.472;2023-03-25T04:59:07;98932.88;;;7.50;100.00
4858;BME280;58975;51.978;8.472;2023-03-25T05:04:04;98919.75;;;7.49;100.00
4858;BME280;58975;51.978;8.472;2023-03-25T05:09:02;98927.03;;;7.56;100.00
4858;BME280;58975;51.978;8.472;2023-03-25T05:13:59;98933.16;;;7.57;100.00
4858;BME280;58975;51.978;8.472;2023-03-25T05:18:56;98929.25;;;7.61;100.00
4858;BME280;58975;51.978;8.472;2023-03-25T05:23:52;98932.88;;;7.60;100.00
4858;BME280;58975;51.978;8.472;2023-03-25T05:28:49;98937.06;;;7.63;100.00
4858;BME280;58975;51.978;8.472;2023-03-25T05:33:46;98930.91;;;7.62;100.00
4858;BME280;58975;51.978;8.472;2023-03-25T05:38:43;98930.91;;;7.62;100.00
4858;BME280;58975;51.978;8.472;2023-03-25T05:43:39;98938.19;;;7.50;100.00
4858;BME280;58975;51.978;8.472;2023-03-25T05:48:36;98932.03;;;7.50;100.00
4858;BME280;58975;51.978;8.472;2023-03-25T05:53:32;98945.56;;;7.47;100.00
4858;BME280;58975;51.978;8.472;2023-03-25T05:58:28;98945.00;;;7.43;100.00
4858;BME280;58975;51.978;8.472;2023-03-25T06:03:27;98955.72;;;7.42;100.00
4858;BME280;58975;51.978;8.472;2023-03-25T06:08:24;98950.16;;;7.45;100.00
4858;BME280;58975;51.978;8.472;2023-03-25T06:13:21;98948.22;;;7.28;100.00
4858;BME280;58975;51.978;8.472;2023-03-25T06:18:18;98946.38;;;7.19;100.00
4858;BME280;58975;51.978;8.472;2023-03-25T06:23:17;98942.19;;;7.26;100.00
4858;BME280;58975;51.978;8.472;2023-03-25T06:28:16;98951.41;;;7.31;100.00
4858;BME280;58975;51.978;8.472;2023-03-25T06:33:14;98963.41;;;7.45;100.00
4858;BME280;58975;51.978;8.472;2023-03-25T06:38:31;98960.63;;;7.56;100.00
4858;BME280;58975;51.978;8.472;2023-03-25T06:43:29;98966.19;;;7.53;100.00
4858;BME280;58975;51.978;8.472;2023-03-25T06:48:25;98970.09;;;7.39;100.00
4858;BME280;58975;51.978;8.472;2023-03-25T06:53:22;98971.34;;;7.35;100.00
4858;BME280;58975;51.978;8.472;2023-03-25T06:58:18;98979.00;;;7.29;100.00
4858;BME280;58975;51.978;8.472;2023-03-25T07:03:15;98966.50;;;7.40;100.00
4858;BME280;58975;51.978;8.472;2023-03-25T07:08:11;98970.69;;;7.52;100.00
4858;BME280;58975;51.978;8.472;2023-03-25T07:13:08;98953.94;;;7.61;100.00
4858;BME280;58975;51.978;8.472;2023-03-25T07:18:06;98957.84;;;7.48;100.00
4858;BME280;58975;51.978;8.472;2023-03-25T07:23:02;98969.09;;;7.31;100.00
4858;BME280;58975;51.978;8.472;2023-03-25T07:27:59;98968.81;;;7.14;100.00
4858;BME280;58975;51.978;8.472;2023-03-25T07:32:55;98966.00;;;7.06;100.00
4858;BME280;58975;51.978;8.472;2023-03-25T07:37:52;98976.84;;;7.03;100.00
4858;BME280;58975;51.978;8.472;2023-03-25T07:42:48;98974.63;;;6.99;100.00
4858;BME280;58975;51.978;8.472;2023-03-25T07:47:45;98984.91;;;6.92;100.00
4858;BME280;58975;51.978;8.472;2023-03-25T07:52:46;98990.78;;;6.96;100.00
4858;BME280;58975;51.978;8.472;2023-03-25T07:57:42;98980.06;;;6.97;100.00
4858;BME280;58975;51.978;8.472;2023-03-25T08:02:39;98984.06;;;6.92;100.00
4858;BME280;58975;51.978;8.472;2023-03-25T08:07:35;98995.22;;;6.95;100.00
4858;BME280;58975;51.978;8.472;2023-03-25T08:12:32;99000.00;;;7.01;100.00
4858;BME280;58975;51.978;8.472;2023-03-25T08:17:28;98998.34;;;7.20;100.00
4858;BME280;58975;51.978;8.472;2023-03-25T08:22:25;98993.38;;;7.36;100.00
4858;BME280;58975;51.978;8.472;2023-03-25T08:27:22;98985.44;;;7.55;100.00
4858;BME280;58975;51.978;8.472;2023-03-25T08:32:19;98979.59;;;7.71;100.00
4858;BME280;58975;51.978;8.472;2023-03-25T08:37:16;98969.13;;;7.79;100.00
4858;BME280;58975;51.978;8.472;2023-03-25T08:42:13;98980.56;;;7.98;100.00
4858;BME280;58975;51.978;8.472;2023-03-25T08:47:10;98976.47;;;8.14;100.00
4858;BME280;58975;51.978;8.472;2023-03-25T08:52:06;98977.03;;;8.27;100.00
4858;BME280;58975;51.978;8.472;2023-03-25T08:57:04;98988.06;;;8.22;100.00
4858;BME280;58975;51.978;8.472;2023-03-25T09:02:01;98977.03;;;8.27;100.00
4858;BME280;58975;51.978;8.472;2023-03-25T09:06:57;98995.81;;;8.43;100.00
4858;BME280;58975;51.978;8.472;2023-03-25T09:12:08;99003.38;;;8.47;100.00
4858;BME280;58975;51.978;8.472;2023-03-25T09:17:04;99013.53;;;8.52;100.00
4858;BME280;58975;51.978;8.472;2023-03-25T09:22:06;99012.75;;;8.79;100.00
4858;BME280;58975;51.978;8.472;2023-03-25T09:27:02;99009.31;;;9.06;100.00
4858;BME280;58975;51.978;8.472;2023-03-25T09:31:59;99007.31;;;9.08;100.00
4858;BME280;58975;51.978;8.472;2023-03-25T09:36:56;99010.84;;;9.26;100.00
4858;BME280;58975;51.978;8.472;2023-03-25T09:42:06;98996.34;;;9.20;100.00
4858;BME280;58975;51.978;8.472;2023-03-25T09:47:07;98998.47;;;9.17;100.00
4858;BME280;58975;51.978;8.472;2023-03-25T09:52:33;98990.22;;;9.20;100.00
4858;BME280;58975;51.978;8.472;2023-03-25T09:57:35;99000.75;;;9.29;100.00
4858;BME280;58975;51.978;8.472;2023-03-25T10:02:43;98996.91;;;9.24;100.00
4858;BME280;58975;51.978;8.472;2023-03-25T10:18:46;98999.25;;;8.99;100.00
4858;BME280;58975;51.978;8.472;2023-03-25T10:23:54;99015.69;;;8.85;100.00
4858;BME280;58975;51.978;8.472;2023-03-25T10:28:57;99001.72;;;9.11;100.00
4858;BME280;58975;51.978;8.472;2023-03-25T10:34:01;98997.03;;;9.22;100.00
4858;BME280;58975;51.978;8.472;2023-03-25T10:39:01;98997.56;;;9.26;100.00
4858;BME280;58975;51.978;8.472;2023-03-25T10:44:00;99010.94;;;9.34;100.00
4858;BME280;58975;51.978;8.472;2023-03-25T10:48:57;99005.75;;;9.15;100.00
4858;BME280;58975;51.978;8.472;2023-03-25T10:53:54;99019.81;;;9.25;100.00
4858;BME280;58975;51.978;8.472;2023-03-25T10:58:53;99014.50;;;9.25;100.00
4858;BME280;58975;51.978;8.472;2023-03-25T11:03:51;98999.81;;;9.48;100.00
4858;BME280;58975;51.978;8.472;2023-03-25T11:08:56;98998.88;;;9.92;100.00
4858;BME280;58975;51.978;8.472;2023-03-25T11:13:55;98987.13;;;9.77;100.00
4858;BME280;58975;51.978;8.472;2023-03-25T11:18:52;98997.97;;;9.31;100.00
4858;BME280;58975;51.978;8.472;2023-03-25T11:23:50;99004.47;;;9.19;100.00
4858;BME280;58975;51.978;8.472;2023-03-25T11:28:53;99007.22;;;9.27;100.00
4858;BME280;58975;51.978;8.472;2023-03-25T11:39:28;99015.78;;;9.21;100.00
4858;BME280;58975;51.978;8.472;2023-03-25T11:44:28;99001.47;;;9.49;100.00
4858;BME280;58975;51.978;8.472;2023-03-25T11:49:27;98996.31;;;9.65;100.00
4858;BME280;58975;51.978;8.472;2023-03-25T11:54:26;99002.09;;;9.78;100.00
4858;BME280;58975;51.978;8.472;2023-03-25T11:59:25;98995.56;;;9.73;100.00
4858;BME280;58975;51.978;8.472;2023-03-25T12:04:23;98993.00;;;9.63;100.00
4858;BME280;58975;51.978;8.472;2023-03-25T12:09:20;98995.09;;;9.77;100.00
4858;BME280;58975;51.978;8.472;2023-03-25T12:30:24;98973.25;;;9.83;100.00
4858;BME280;58975;51.978;8.472;2023-03-25T12:35:41;98965.44;;;9.64;100.00
4858;BME280;58975;51.978;8.472;2023-03-25T12:51:41;98973.56;;;8.63;100.00
4858;BME280;58975;51.978;8.472;2023-03-25T12:56:51;98983.81;;;8.48;100.00
4858;BME280;58975;51.978;8.472;2023-03-25T13:02:08;99021.88;;;7.91;100.00
4858;BME280;58975;51.978;8.472;2023-03-25T13:07:13;99012.94;;;7.83;100.00
4858;BME280;58975;51.978;8.472;2023-03-25T13:17:21;99007.91;;;7.89;100.00
4858;BME280;58975;51.978;8.472;2023-03-25T13:22:30;99002.75;;;7.78;100.00
4858;BME280;58975;51.978;8.472;2023-03-25T13:27:32;98995.34;;;7.91;100.00
4858;BME280;58975;51.978;8.472;2023-03-25T13:32:34;98985.25;;;8.24;100.00
4858;BME280;58975;51.978;8.472;2023-03-25T13:37:37;98989.44;;;8.36;100.00
4858;BME280;58975;51.978;8.472;2023-03-25T13:48:16;98954.31;;;9.33;100.00
4858;BME280;58975;51.978;8.472;2023-03-25T13:53:24;98941.72;;;9.53;100.00
4858;BME280;58975;51.978;8.472;2023-03-25T14:03:46;98958.81;;;8.78;100.00
4858;BME280;58975;51.978;8.472;2023-03-25T14:09:06;98970.91;;;8.63;100.00
4858;BME280;58975;51.978;8.472;2023-03-25T14:14:09;98968.84;;;8.57;100.00
4858;BME280;58975;51.978;8.472;2023-03-25T14:19:10;98970.69;;;8.47;100.00
4858;BME280;58975;51.978;8.472;2023-03-25T14:24:16;98978.41;;;8.40;100.00
4858;BME280;58975;51.978;8.472;2023-03-25T14:29:34;98988.03;;;8.32;100.00
4858;BME280;58975;51.978;8.472;2023-03-25T14:34:32;98989.28;;;8.28;100.00
4858;BME280;58975;51.978;8.472;2023-03-25T14:44:27;99014.03;;;7.80;100.00
4858;BME280;58975;51.978;8.472;2023-03-25T14:49:48;98980.84;;;7.76;100.00
4858;BME280;58975;51.978;8.472;2023-03-25T14:54:50;98983.09;;;7.71;100.00
4858;BME280;58975;51.978;8.472;2023-03-25T14:59:59;98985.03;;;7.69;100.00
4858;BME280;58975;51.978;8.472;2023-03-25T15:04:59;98986.81;;;7.69;100.00
4858;BME280;58975;51.978;8.472;2023-03-25T15:09:57;98998.56;;;7.66;100.00
4858;BME280;58975;51.978;8.472;2023-03-25T15:14:55;98996.19;;;7.73;100.00
4858;BME280;58975;51.978;8.472;2023-03-25T15:25:02;98988.22;;;8.01;100.00
4858;BME280;58975;51.978;8.472;2023-03-25T15:30:13;98985.28;;;8.04;100.00
4858;BME280;58975;51.978;8.472;2023-03-25T15:35:35;98971.59;;;8.19;100.00
4858;BME280;58975;51.978;8.472;2023-03-25T15:41:07;98978.00;;;8.26;100.00
4858;BME280;58975;51.978;8.472;2023-03-25T15:46:26;98974.59;;;8.89;100.00
4858;BME280;58975;51.978;8.472;2023-03-25T15:56:43;98957.72;;;9.08;100.00
4858;BME280;58975;51.978;8.472;2023-03-25T16:01:43;98974.72;;;9.15;100.00
4858;BME280;58975;51.978;8.472;2023-03-25T16:06:44;98970.94;;;8.90;100.00
4858;BME280;58975;51.978;8.472;2023-03-25T16:11:41;98983.81;;;8.58;100.00
4858;BME280;58975;51.978;8.472;2023-03-25T16:16:45;98987.31;;;8.39;100.00
4858;BME280;58975;51.978;8.472;2023-03-25T16:21:47;98984.41;;;8.33;100.00
4858;BME280;58975;51.978;8.472;2023-03-25T16:26:46;98979.50;;;8.28;100.00
4858;BME280;58975;51.978;8.472;2023-03-25T16:32:00;98981.63;;;8.25;100.00
4858;BME280;58975;51.978;8.472;2023-03-25T16:36:57;98981.34;;;8.18;100.00
4858;BME280;58975;51.978;8.472;2023-03-25T16:42:03;98995.34;;;8.11;100.00
4858;BME280;58975;51.978;8.472;2023-03-25T16:47:02;99031.22;;;7.95;100.00
4858;BME280;58975;51.978;8.472;2023-03-25T16:52:01;99012.44;;;6.80;100.00
4858;BME280;58975;51.978;8.472;2023-03-25T16:56:59;99039.53;;;6.93;100.00
4858;BME280;58975;51.978;8.472;2023-03-25T17:01:58;99041.25;;;7.13;100.00
4858;BME280;58975;51.978;8.472;2023-03-25T17:06:57;99027.75;;;7.17;100.00
4858;BME280;58975;51.978;8.472;2023-03-25T17:11:56;99032.94;;;7.28;100.00
4858;BME280;58975;51.978;8.472;2023-03-25T17:16:53;99035.75;;;7.36;100.00
4858;BME280;58975;51.978;8.472;2023-03-25T17:27:14;99047.03;;;7.28;100.00
4858;BME280;58975;51.978;8.472;2023-03-25T17:32:16;99058.56;;;7.27;100.00
4858;BME280;58975;51.978;8.472;2023-03-25T17:37:14;99066.13;;;7.32;100.00
4858;BME280;58975;51.978;8.472;2023-03-25T17:42:21;99085.22;;;7.35;100.00
4858;BME280;58975;51.978;8.472;2023-03-25T17:47:19;99122.69;;;7.31;100.00
4858;BME280;58975;51.978;8.472;2023-03-25T17:52:17;99134.50;;;7.17;100.00
4858;BME280;58975;51.978;8.472;2023-03-25T17:57:16;99139.84;;;7.06;100.00
4858;BME280;58975;51.978;8.472;2023-03-25T18:02:14;99125.09;;;7.03;100.00
4858;BME280;58975;51.978;8.472;2023-03-25T18:07:11;99128.50;;;6.94;100.00
4858;BME280;58975;51.978;8.472;2023-03-25T18:12:07;99130.59;;;6.91;100.00
4858;BME280;58975;51.978;8.472;2023-03-25T18:17:05;99142.56;;;6.85;100.00
4858;BME280;58975;51.978;8.472;2023-03-25T18:22:01;99144.06;;;6.78;100.00
4858;BME280;58975;51.978;8.472;2023-03-25T18:27:14;99152.75;;;6.69;100.00
4858;BME280;58975;51.978;8.472;2023-03-25T18:32:11;99133.50;;;6.67;100.00
4858;BME280;58975;51.978;8.472;2023-03-25T18:37:09;99131.28;;;6.62;100.00
4858;BME280;58975;51.978;8.472;2023-03-25T18:42:06;99134.31;;;6.58;100.00
4858;BME280;58975;51.978;8.472;2023-03-25T18:47:02;99144.69;;;6.50;100.00
4858;BME280;58975;51.978;8.472;2023-03-25T18:51:59;99156.97;;;6.40;100.00
4858;BME280;58975;51.978;8.472;2023-03-25T18:56:57;99168.34;;;6.31;100.00
4858;BME280;58975;51.978;8.472;2023-03-25T19:01:54;99159.22;;;6.24;100.00
4858;BME280;58975;51.978;8.472;2023-03-25T19:06:51;99172.44;;;6.24;100.00
4858;BME280;58975;51.978;8.472;2023-03-25T19:11:48;99177.50;;;6.15;100.00
4858;BME280;58975;51.978;8.472;2023-03-25T19:16:45;99183.78;;;6.14;100.00
4858;BME280;58975;51.978;8.472;2023-03-25T19:21:58;99189.06;;;6.14;100.00
4858;BME280;58975;51.978;8.472;2023-03-25T19:26:55;99190.50;;;6.18;100.00
4858;BME280;58975;51.978;8.472;2023-03-25T19:31:52;99197.44;;;6.19;100.00
4858;BME280;58975;51.978;8.472;2023-03-25T19:36:51;99204.91;;;6.14;100.00
4858;BME280;58975;51.978;8.472;2023-03-25T19:41:48;99206.38;;;6.07;100.00
4858;BME280;58975;51.978;8.472;2023-03-25T19:46:46;99214.66;;;6.14;100.00
4858;BME280;58975;51.978;8.472;2023-03-25T19:51:42;99218.84;;;6.16;100.00
4858;BME280;58975;51.978;8.472;2023-03-25T19:56:40;99228.56;;;6.16;100.00
4858;BME280;58975;51.978;8.472;2023-03-25T20:01:37;99222.22;;;6.18;100.00
4858;BME280;58975;51.978;8.472;2023-03-25T20:06:34;99215.22;;;6.17;100.00
4858;BME280;58975;51.978;8.472;2023-03-25T20:11:32;99210.16;;;6.26;100.00
4858;BME280;58975;51.978;8.472;2023-03-25T20:16:28;99205.88;;;6.45;100.00
4858;BME280;58975;51.978;8.472;2023-03-25T20:21:26;99205.47;;;6.29;100.00
4858;BME280;58975;51.978;8.472;2023-03-25T20:26:22;99207.25;;;6.29;100.00
4858;BME280;58975;51.978;8.472;2023-03-25T20:31:21;99209.94;;;6.17;100.00
4858;BME280;58975;51.978;8.472;2023-03-25T20:36:18;99207.25;;;6.29;100.00
4858;BME280;58975;51.978;8.472;2023-03-25T20:41:16;99209.22;;;6.27;100.00
4858;BME280;58975;51.978;8.472;2023-03-25T20:46:13;99215.81;;;6.21;100.00
4858;BME280;58975;51.978;8.472;2023-03-25T20:51:10;99216.19;;;6.16;100.00
4858;BME280;58975;51.978;8.472;2023-03-25T20:56:06;99215.75;;;6.11;100.00
4858;BME280;58975;51.978;8.472;2023-03-25T21:01:03;99234.84;;;6.04;100.00
4858;BME280;58975;51.978;8.472;2023-03-25T21:06:00;99248.44;;;5.99;100.00
4858;BME280;58975;51.978;8.472;2023-03-25T21:11:08;99236.19;;;5.98;100.00
4858;BME280;58975;51.978;8.472;2023-03-25T21:16:05;99252.16;;;5.97;100.00
4858;BME280;58975;51.978;8.472;2023-03-25T21:21:02;99253.47;;;6.02;100.00
4858;BME280;58975;51.978;8.472;2023-03-25T21:26:03;99261.88;;;6.07;100.00
4858;BME280;58975;51.978;8.472;2023-03-25T21:31:12;99265.81;;;6.13;100.00
4858;BME280;58975;51.978;8.472;2023-03-25T21:36:22;99270.38;;;6.22;100.00
4858;BME280;58975;51.978;8.472;2023-03-25T21:41:19;99277.00;;;6.16;100.00
4858;BME280;58975;51.978;8.472;2023-03-25T21:46:16;99270.84;;;6.16;100.00
4858;BME280;58975;51.978;8.472;2023-03-25T21:51:12;99273.38;;;6.17;100.00
4858;BME280;58975;51.978;8.472;2023-03-25T21:56:17;99275.78;;;6.21;100.00
4858;BME280;58975;51.978;8.472;2023-03-25T22:01:18;99286.09;;;6.24;100.00
4858;BME280;58975;51.978;8.472;2023-03-25T22:06:21;99287.53;;;6.28;100.00
4858;BME280;58975;51.978;8.472;2023-03-25T22:11:20;99296.91;;;6.32;100.00
4858;BME280;58975;51.978;8.472;2023-03-25T22:16:18;99296.16;;;6.41;100.00
4858;BME280;58975;51.978;8.472;2023-03-25T22:21:18;99293.16;;;6.45;100.00
4858;BME280;58975;51.978;8.472;2023-03-25T22:26:16;99304.06;;;6.52;100.00
4858;BME280;58975;51.978;8.472;2023-03-25T22:31:15;99307.19;;;6.57;100.00
4858;BME280;58975;51.978;8.472;2023-03-25T22:36:14;99303.34;;;6.61;100.00
4858;BME280;58975;51.978;8.472;2023-03-25T22:41:13;99302.97;;;6.65;100.00
4858;BME280;58975;51.978;8.472;2023-03-25T22:46:10;99299.22;;;6.68;100.00
4858;BME280;58975;51.978;8.472;2023-03-25T22:51:09;99304.03;;;6.74;100.00
4858;BME280;58975;51.978;8.472;2023-03-25T22:56:06;99321.56;;;6.75;100.00
4858;BME280;58975;51.978;8.472;2023-03-25T23:01:09;99316.84;;;6.79;100.00
4858;BME280;58975;51.978;8.472;2023-03-25T23:06:11;99322.72;;;6.82;100.00
4858;BME280;58975;51.978;8.472;2023-03-25T23:11:10;99325.16;;;6.85;100.00
4858;BME280;58975;51.978;8.472;2023-03-25T23:16:09;99321.28;;;6.89;100.00
4858;BME280;58975;51.978;8.472;2023-03-25T23:21:10;99317.28;;;6.95;100.00
4858;BME280;58975;51.978;8.472;2023-03-25T23:26:09;99321.72;;;6.94;100.00
4858;BME280;58975;51.978;8.472;2023-03-25T23:31:12;99322.13;;;6.90;100.00
4858;BME280;58975;51.978;8.472;2023-03-25T23:36:09;99333.09;;;6.85;100.00
4858;BME280;58975;51.978;8.472;2023-03-25T23:41:08;99339.06;;;6.87;100.00
4858;BME280;58975;51.978;8.472;2023-03-25T23:46:06;99331.97;;;6.88;100.00
4858;BME280;58975;51.978;8.472;2023-03-25T23:51:03;99329.44;;;6.86;100.00
4858;BME280;58975;51.978;8.472;2023-03-25T23:56:00;99341.72;;;6.87;100.00
